Terminal Aerodrome Forecast
Issued by NWS Atlanta, GA

Home | Current Version | Previous Version | Text Only | Print | Product List | Glossary On
Versions: 1 2 3 4 5 6 7 8 9 10 11
658
FTUS42 KFFC 121742
TAFMCN
TAF
KMCN 121742Z 1218/1318 28005KT P6SM FEW150
     FM130100 30012KT P6SM SKC
     FM131700 33011KT P6SM SKC=

USA.gov is the U.S. government's official web portal to all federal, state and local government web resources and services.